createdAt,value
2018-05-27T00:00:52.343Z,96316.48
2018-05-27T00:03:22.433Z,96313.52
2018-05-27T00:05:52.547Z,96305.11
2018-05-27T00:08:22.643Z,96301.26
2018-05-27T00:10:53.093Z,96302.36
2018-05-27T00:13:23.326Z,96299.42
2018-05-27T00:15:53.879Z,96295.43
2018-05-27T00:18:23.977Z,96289.89
2018-05-27T00:20:54.069Z,96280.21
2018-05-27T00:23:24.723Z,96282.16
2018-05-27T00:25:55.051Z,96281.80
2018-05-27T00:28:25.527Z,96282.47
2018-05-27T00:30:55.705Z,96278.61
2018-05-27T00:33:26.083Z,96278.25
2018-05-27T00:35:56.175Z,96282.45
2018-05-27T00:38:26.265Z,96284.23
2018-05-27T00:40:56.434Z,96284.21
2018-05-27T00:43:26.522Z,96281.61
2018-05-27T00:45:57.016Z,96279.73
2018-05-27T00:48:27.117Z,96282.94
2018-05-27T00:50:56.876Z,96283.25
2018-05-27T00:53:44.438Z,96276.14
2018-05-27T00:56:14.535Z,96269.55
2018-05-27T00:58:44.909Z,96264.05
2018-05-27T01:01:14.967Z,96265.23
2018-05-27T01:03:45.449Z,96259.39
2018-05-27T01:06:15.577Z,96260.70
2018-05-27T01:08:45.663Z,96260.78
2018-05-27T01:11:15.818Z,96252.95
2018-05-27T01:13:46.293Z,96257.34
2018-05-27T01:16:16.779Z,96247.58
2018-05-27T01:18:47.191Z,96252.84
2018-05-27T01:21:17.292Z,96257.66
2018-05-27T01:23:47.402Z,96250.92
2018-05-27T01:26:17.489Z,96249.80
2018-05-27T01:28:47.727Z,96245.09
2018-05-27T01:31:18.235Z,96237.00
2018-05-27T01:33:48.325Z,96235.00
2018-05-27T01:36:18.405Z,96235.84
2018-05-27T01:38:49.109Z,96238.39
2018-05-27T01:41:18.949Z,96231.20
2018-05-27T01:43:49.445Z,96225.67
2018-05-27T01:46:19.507Z,96223.34
2018-05-27T01:48:49.595Z,96221.13
2018-05-27T01:51:19.696Z,96229.93
2018-05-27T01:53:49.798Z,96224.05
2018-05-27T01:56:19.902Z,96220.47
2018-05-27T01:58:50.096Z,96219.66
2018-05-27T02:01:20.578Z,96223.72
2018-05-27T02:03:50.652Z,96226.00
2018-05-27T02:06:20.760Z,96222.53
2018-05-27T02:08:51.257Z,96230.02
2018-05-27T02:11:21.365Z,96229.63
2018-05-27T02:13:51.452Z,96227.28
2018-05-27T02:16:21.544Z,96219.27
2018-05-27T02:18:51.696Z,96213.37
2018-05-27T02:21:21.806Z,96213.31
2018-05-27T02:23:51.988Z,96205.33
2018-05-27T02:26:22.122Z,96210.39
2018-05-27T02:28:52.640Z,96206.27
2018-05-27T02:31:22.746Z,96195.48
2018-05-27T02:33:52.708Z,96203.55
2018-05-27T02:36:22.800Z,96199.73
2018-05-27T02:38:52.906Z,96200.15
2018-05-27T02:41:23.310Z,96190.13
2018-05-27T02:43:53.394Z,96201.17
2018-05-27T02:46:23.516Z,96196.14
2018-05-27T02:48:53.630Z,96197.83
2018-05-27T02:51:23.702Z,96204.50
2018-05-27T02:53:53.986Z,96199.21
2018-05-27T02:56:24.296Z,96202.12
2018-05-27T02:58:54.384Z,96195.18
2018-05-27T03:01:24.489Z,96201.45
2018-05-27T03:03:54.566Z,96198.58
2018-05-27T03:06:24.115Z,96195.80
2018-05-27T03:08:54.207Z,96203.92
2018-05-27T03:11:24.166Z,96193.53
2018-05-27T03:13:53.736Z,96198.15
2018-05-27T03:16:23.674Z,96199.48
2018-05-27T03:18:53.202Z,96198.07
2018-05-27T03:21:22.717Z,96199.64
2018-05-27T03:23:52.270Z,96202.31
2018-05-27T03:26:22.196Z,96196.76
2018-05-27T03:28:52.776Z,96198.57
2018-05-27T03:31:22.314Z,96199.83
2018-05-27T03:33:52.271Z,96194.25
2018-05-27T03:36:21.824Z,96192.03
2018-05-27T03:38:51.569Z,96185.58
2018-05-27T03:41:21.364Z,96181.11
2018-05-27T03:43:51.334Z,96179.28
2018-05-27T03:46:20.880Z,96182.58
2018-05-27T03:48:50.833Z,96185.30
2018-05-27T03:51:20.365Z,96182.99
2018-05-27T03:53:49.928Z,96176.81
2018-05-27T03:56:19.902Z,96173.11
2018-05-27T03:58:51.496Z,96177.89
2018-05-27T04:01:21.428Z,96178.55
2018-05-27T04:07:20.877Z,96184.47
2018-05-27T04:09:50.393Z,96183.66
2018-05-27T04:12:19.979Z,96190.06
2018-05-27T04:14:49.515Z,96188.61
2018-05-27T04:17:19.033Z,96180.77
2018-05-27T04:19:48.576Z,96184.03
2018-05-27T04:22:18.494Z,96172.19
2018-05-27T04:24:47.722Z,96171.86
2018-05-27T04:27:17.232Z,96171.24
2018-05-27T04:29:46.812Z,96162.22
2018-05-27T04:32:16.336Z,96166.03
2018-05-27T04:34:45.854Z,96165.91
2018-05-27T04:37:15.375Z,96166.64
2018-05-27T04:39:45.027Z,96168.11
2018-05-27T04:42:14.944Z,96167.89
2018-05-27T04:44:44.450Z,96174.13
2018-05-27T04:47:14.386Z,96174.49
2018-05-27T04:49:43.912Z,96178.09
2018-05-27T04:52:13.439Z,96171.09
2018-05-27T04:54:42.958Z,96176.17
2018-05-27T04:57:12.486Z,96180.20
2018-05-27T04:59:42.412Z,96174.84
2018-05-27T05:02:11.944Z,96183.58
2018-05-27T05:04:41.470Z,96187.05
2018-05-27T05:07:12.277Z,96191.42
2018-05-27T05:09:42.346Z,96199.67
2018-05-27T05:12:12.428Z,96200.23
2018-05-27T05:14:42.928Z,96207.22
2018-05-27T05:17:13.022Z,96214.53
2018-05-27T05:19:43.117Z,96210.91
2018-05-27T05:22:13.318Z,96212.30
2018-05-27T05:24:43.920Z,96221.40
2018-05-27T05:27:14.021Z,96230.81
2018-05-27T05:29:44.128Z,96234.40
2018-05-27T05:32:14.970Z,96234.34
2018-05-27T05:34:45.055Z,96234.03
2018-05-27T05:37:15.942Z,96234.83
2018-05-27T05:39:46.027Z,96232.02
2018-05-27T05:42:16.107Z,96226.89
2018-05-27T05:44:46.186Z,96226.50
2018-05-27T05:47:16.275Z,96222.58
2018-05-27T05:49:46.756Z,96227.66
2018-05-27T05:52:16.842Z,96233.56
2018-05-27T05:54:46.923Z,96238.33
2018-05-27T05:57:17.015Z,96245.39
2018-05-27T05:59:54.532Z,96245.41
2018-05-27T06:02:24.619Z,96255.56
2018-05-27T06:04:54.680Z,96262.43
2018-05-27T06:07:24.763Z,96273.11
2018-05-27T06:09:54.843Z,96271.99
2018-05-27T06:12:24.931Z,96274.59
2018-05-27T06:14:55.201Z,96276.48
2018-05-27T06:17:25.287Z,96280.05
2018-05-27T06:19:56.061Z,96280.08
2018-05-27T06:22:26.160Z,96280.09
2018-05-27T06:24:55.917Z,96290.73
2018-05-27T06:27:26.049Z,96299.75
2018-05-27T06:29:56.212Z,96299.95
2018-05-27T06:32:26.359Z,96307.03
2018-05-27T06:34:56.491Z,96313.19
2018-05-27T06:37:26.582Z,96319.47
2018-05-27T06:39:56.863Z,96322.86
2018-05-27T06:42:26.978Z,96326.44
2018-05-27T06:44:57.101Z,96329.27
2018-05-27T06:47:27.603Z,96342.50
2018-05-27T06:49:57.759Z,96349.75
2018-05-27T06:52:28.246Z,96353.15
2018-05-27T06:54:58.316Z,96359.44
2018-05-27T06:57:28.457Z,96355.71
2018-05-27T06:59:58.569Z,96353.26
2018-05-27T07:02:28.681Z,96354.75
2018-05-27T07:04:58.854Z,96346.66
2018-05-27T07:07:28.777Z,96350.80
2018-05-27T07:09:58.845Z,96345.58
2018-05-27T07:12:29.333Z,96338.98
2018-05-27T07:14:59.439Z,96341.02
2018-05-27T07:17:29.539Z,96342.23
2018-05-27T07:19:59.624Z,96343.36
2018-05-27T07:22:30.091Z,96345.22
2018-05-27T07:25:00.163Z,96337.48
2018-05-27T07:27:30.719Z,96344.31
2018-05-27T07:30:00.814Z,96345.62
2018-05-27T07:32:31.303Z,96345.34
2018-05-27T07:35:01.400Z,96342.73
2018-05-27T07:37:31.516Z,96345.75
2018-05-27T07:40:01.626Z,96350.14
2018-05-27T07:42:31.922Z,96352.03
2018-05-27T07:45:02.685Z,96347.11
2018-05-27T07:47:32.763Z,96344.56
2018-05-27T07:50:03.275Z,96344.95
2018-05-27T07:52:33.358Z,96344.23
2018-05-27T07:55:03.431Z,96347.12
2018-05-27T07:57:33.595Z,96344.05
2018-05-27T08:00:03.354Z,96345.77
2018-05-27T08:02:33.479Z,96345.73
2018-05-27T08:05:03.654Z,96343.12
2018-05-27T08:07:33.733Z,96345.47
2018-05-27T08:10:03.609Z,96348.39
2018-05-27T08:12:33.682Z,96344.59
2018-05-27T08:15:03.553Z,96341.83
2018-05-27T08:17:33.849Z,96343.13
2018-05-27T08:20:03.760Z,96342.53
2018-05-27T08:22:34.071Z,96343.42
2018-05-27T08:25:04.226Z,96339.67
2018-05-27T08:27:34.875Z,96341.94
2018-05-27T08:30:04.318Z,96348.28
2018-05-27T08:32:34.797Z,96349.20
2018-05-27T08:35:04.667Z,96347.09
2018-05-27T08:37:34.952Z,96344.57
2018-05-27T08:40:05.028Z,96356.50
2018-05-27T08:42:35.115Z,96353.62
2018-05-27T08:45:05.785Z,96355.63
2018-05-27T08:47:35.894Z,96366.73
2018-05-27T08:50:05.655Z,96357.75
2018-05-27T08:52:35.767Z,96362.55
2018-05-27T08:55:05.520Z,96359.32
2018-05-27T08:57:35.615Z,96357.98
2018-05-27T09:00:06.123Z,96362.69
2018-05-27T09:02:35.897Z,96364.27
2018-05-27T09:05:05.412Z,96366.73
2018-05-27T09:07:35.541Z,96360.95
2018-05-27T09:10:05.325Z,96358.00
2018-05-27T09:12:35.798Z,96353.77
2018-05-27T09:15:06.158Z,96354.43
2018-05-27T09:17:36.427Z,96353.92
2018-05-27T09:20:06.513Z,96355.77
2018-05-27T09:22:37.004Z,96347.01
2018-05-27T09:25:07.174Z,96359.23
2018-05-27T09:27:37.425Z,96351.96
2018-05-27T09:30:07.511Z,96345.88
2018-05-27T09:32:38.001Z,96346.95
2018-05-27T09:35:08.117Z,96351.24
2018-05-27T09:37:38.217Z,96348.60
2018-05-27T09:40:08.293Z,96346.53
2018-05-27T09:42:38.782Z,96346.95
2018-05-27T09:45:08.979Z,96345.84
2018-05-27T09:47:40.359Z,96347.08
2018-05-27T09:50:10.439Z,96350.98
2018-05-27T09:52:40.559Z,96343.80
2018-05-27T09:55:10.719Z,96341.27
2018-05-27T09:57:40.797Z,96337.23
2018-05-27T10:00:10.561Z,96338.40
2018-05-27T10:02:41.055Z,96335.85
2018-05-27T10:05:11.173Z,96333.25
2018-05-27T10:07:41.259Z,96334.53
2018-05-27T10:10:11.365Z,96334.17
2018-05-27T10:12:42.092Z,96333.30
2018-05-27T10:15:12.333Z,96327.36
2018-05-27T10:17:42.460Z,96329.63
2018-05-27T10:20:12.543Z,96326.27
2018-05-27T10:22:42.643Z,96324.72
2018-05-27T10:25:12.738Z,96318.88
2018-05-27T10:27:42.838Z,96317.17
2018-05-27T10:30:12.915Z,96305.34
2018-05-27T10:32:43.053Z,96303.41
2018-05-27T10:35:12.996Z,96295.00
2018-05-27T10:37:43.126Z,96291.77
2018-05-27T10:40:12.924Z,96282.99
2018-05-27T10:42:43.003Z,96282.91
2018-05-27T10:45:13.111Z,96282.88
2018-05-27T10:47:43.217Z,96276.56
2018-05-27T10:50:13.294Z,96275.61
2018-05-27T10:52:43.772Z,96260.38
2018-05-27T10:55:13.321Z,96264.38
2018-05-27T10:57:43.170Z,96255.28
2018-05-27T11:00:13.248Z,96255.70
2018-05-27T11:02:43.824Z,96250.87
2018-05-27T11:05:14.314Z,96255.59
2018-05-27T11:07:44.137Z,96249.61
2018-05-27T11:10:13.946Z,96255.48
2018-05-27T11:12:43.750Z,96249.98
2018-05-27T11:15:13.543Z,96249.30
2018-05-27T11:17:43.777Z,96249.88
2018-05-27T11:20:13.602Z,96243.21
2018-05-27T11:22:43.408Z,96249.11
2018-05-27T11:25:13.212Z,96244.50
2018-05-27T11:27:43.404Z,96241.28
2018-05-27T11:30:13.232Z,96239.94
2018-05-27T11:32:43.019Z,96235.96
2018-05-27T11:35:12.827Z,96237.69
2018-05-27T11:37:42.670Z,96232.80
2018-05-27T11:40:12.489Z,96229.99
2018-05-27T11:42:42.680Z,96224.44
2018-05-27T11:45:12.488Z,96215.16
2018-05-27T11:47:42.400Z,96215.26
2018-05-27T11:50:12.218Z,96210.56
2018-05-27T11:52:42.010Z,96205.52
2018-05-27T11:55:11.824Z,96204.14
2018-05-27T11:57:41.609Z,96208.11
2018-05-27T12:00:11.404Z,96207.09
2018-05-27T12:02:41.606Z,96200.70
2018-05-27T12:05:11.421Z,96215.27
2018-05-27T12:07:41.424Z,96212.50
2018-05-27T12:10:11.243Z,96207.17
2018-05-27T12:12:41.049Z,96210.51
2018-05-27T12:15:11.034Z,96200.19
2018-05-27T12:17:40.835Z,96202.58
2018-05-27T12:20:10.648Z,96199.22
2018-05-27T12:22:40.453Z,96195.59
2018-05-27T12:25:10.250Z,96195.46
2018-05-27T12:27:40.540Z,96192.97
2018-05-27T12:30:10.356Z,96183.79
2018-05-27T12:32:40.176Z,96175.17
2018-05-27T12:35:10.028Z,96167.33
2018-05-27T12:37:39.823Z,96166.75
2018-05-27T12:40:10.028Z,96162.27
2018-05-27T12:42:39.850Z,96160.48
2018-05-27T12:45:10.022Z,96158.05
2018-05-27T12:47:39.819Z,96142.69
2018-05-27T12:50:09.935Z,96155.70
2018-05-27T12:52:40.420Z,96153.44
2018-05-27T12:55:10.522Z,96152.31
2018-05-27T12:57:40.604Z,96149.95
2018-05-27T13:00:11.097Z,96153.92
2018-05-27T13:02:41.350Z,96146.66
2018-05-27T13:05:12.120Z,96149.30
2018-05-27T13:07:42.212Z,96146.98
2018-05-27T13:10:12.706Z,96149.34
2018-05-27T13:12:42.817Z,96150.02
2018-05-27T13:15:12.628Z,96157.67
2018-05-27T13:17:42.728Z,96147.45
2018-05-27T13:20:12.532Z,96155.64
2018-05-27T13:22:42.624Z,96154.30
2018-05-27T13:25:12.969Z,96158.48
2018-05-27T13:27:43.059Z,96152.46
2018-05-27T13:30:13.562Z,96150.40
2018-05-27T13:32:44.124Z,96157.95
2018-05-27T13:35:14.615Z,96154.77
2018-05-27T13:37:44.704Z,96157.20
2018-05-27T13:40:14.977Z,96156.00
2018-05-27T13:42:45.075Z,96159.05
2018-05-27T13:45:15.156Z,96159.44
2018-05-27T13:47:45.245Z,96154.84
2018-05-27T13:50:15.322Z,96150.08
2018-05-27T13:52:45.462Z,96152.23
2018-05-27T13:55:15.596Z,96145.22
2018-05-27T13:57:45.842Z,96141.33
2018-05-27T14:00:16.332Z,96137.55
2018-05-27T14:02:46.601Z,96133.06
2018-05-27T14:05:16.731Z,96127.77
2018-05-27T14:07:46.807Z,96125.36
2018-05-27T14:10:16.915Z,96125.57
2018-05-27T14:12:47.186Z,96122.09
2018-05-27T14:15:17.291Z,96124.34
2018-05-27T14:17:47.765Z,96118.15
2018-05-27T14:20:17.858Z,96121.48
2018-05-27T14:22:47.922Z,96111.94
2018-05-27T14:25:18.030Z,96109.37
2018-05-27T14:27:48.662Z,96106.70
2018-05-27T14:30:18.545Z,96100.78
2018-05-27T14:32:48.615Z,96096.31
2018-05-27T14:35:18.726Z,96097.48
2018-05-27T14:37:48.818Z,96095.69
2018-05-27T14:40:18.893Z,96086.77
2018-05-27T14:42:49.402Z,96090.90
2018-05-27T14:45:19.523Z,96078.43
2018-05-27T14:47:49.646Z,96085.58
2018-05-27T14:50:19.873Z,96083.53
2018-05-27T14:52:50.107Z,96078.90
2018-05-27T14:55:20.593Z,96074.75
2018-05-27T14:57:50.682Z,96069.56
2018-05-27T15:00:20.793Z,96069.09
2018-05-27T15:02:51.271Z,96066.17
2018-05-27T15:05:21.191Z,96057.51
2018-05-27T15:07:51.267Z,96052.05
2018-05-27T15:10:21.357Z,96044.93
2018-05-27T15:12:51.855Z,96036.20
2018-05-27T15:15:21.981Z,96037.77
2018-05-27T15:17:52.100Z,96028.14
2018-05-27T15:20:22.296Z,96027.14
2018-05-27T15:22:52.385Z,96019.86
2018-05-27T15:25:22.470Z,96024.96
2018-05-27T15:27:52.837Z,96026.07
2018-05-27T15:30:23.017Z,96024.08
2018-05-27T15:32:53.119Z,96014.86
2018-05-27T15:35:23.225Z,96019.42
2018-05-27T15:37:53.362Z,96020.61
2018-05-27T15:40:23.613Z,96010.59
2018-05-27T15:42:54.116Z,96006.20
2018-05-27T15:45:24.203Z,96015.95
2018-05-27T15:47:54.302Z,96008.84
2018-05-27T15:50:24.419Z,96006.27
2018-05-27T15:52:54.520Z,96001.19
2018-05-27T15:55:24.599Z,95997.64
2018-05-27T15:57:54.682Z,95989.52
2018-05-27T16:00:24.771Z,95998.30
2018-05-27T16:02:54.877Z,96003.62
2018-05-27T16:05:24.972Z,96000.13
2018-05-27T16:07:55.611Z,95998.33
2018-05-27T16:10:25.681Z,95997.03
2018-05-27T16:12:55.772Z,96002.86
2018-05-27T16:15:25.846Z,96006.95
2018-05-27T16:17:55.949Z,96005.77
2018-05-27T16:20:26.153Z,96003.12
2018-05-27T16:22:56.680Z,96001.56
2018-05-27T16:25:26.953Z,95996.33
2018-05-27T16:27:57.084Z,95998.30
2018-05-27T16:30:27.173Z,96001.25
2018-05-27T16:32:57.266Z,96000.50
2018-05-27T16:35:27.914Z,95990.19
2018-05-27T16:37:58.677Z,95995.66
2018-05-27T16:40:28.767Z,95988.93
2018-05-27T16:42:58.861Z,95977.42
2018-05-27T16:45:29.356Z,95968.83
2018-05-27T16:47:59.510Z,95965.84
2018-05-27T16:50:30.009Z,95960.34
2018-05-27T16:53:00.133Z,95962.70
2018-05-27T16:55:30.413Z,95964.37
2018-05-27T16:58:00.537Z,95977.64
2018-05-27T17:00:30.620Z,95975.02
2018-05-27T17:03:01.113Z,95970.13
2018-05-27T17:05:31.214Z,95965.43
2018-05-27T17:08:01.323Z,95960.17
2018-05-27T17:10:31.422Z,95964.96
2018-05-27T17:13:02.635Z,95967.94
2018-05-27T17:15:32.913Z,95972.31
2018-05-27T17:18:03.038Z,95970.86
2018-05-27T17:20:33.836Z,95972.34
2018-05-27T17:23:03.963Z,95974.22
2018-05-27T17:25:34.447Z,95973.14
2018-05-27T17:28:05.325Z,95971.92
2018-05-27T17:30:35.443Z,95971.47
2018-05-27T17:33:05.953Z,95962.22
2018-05-27T17:35:36.031Z,95960.35
2018-05-27T17:38:06.107Z,95963.58
2018-05-27T17:40:36.197Z,95958.42
2018-05-27T17:43:06.289Z,95962.36
2018-05-27T17:45:36.386Z,95963.61
2018-05-27T17:48:12.591Z,95972.10
2018-05-27T17:50:42.723Z,95970.17
2018-05-27T17:53:12.803Z,95966.59
2018-05-27T17:55:42.889Z,95970.13
2018-05-27T17:58:12.973Z,95963.77
2018-05-27T18:00:43.071Z,95975.73
2018-05-27T18:03:13.163Z,95963.33
2018-05-27T18:05:44.353Z,95956.89
2018-05-27T18:08:14.889Z,95959.44
2018-05-27T18:10:44.971Z,95954.91
2018-05-27T18:13:15.063Z,95953.59
2018-05-27T18:15:45.159Z,95952.98
2018-05-27T18:18:15.239Z,95951.89
2018-05-27T18:20:45.319Z,95954.49
2018-05-27T18:23:15.389Z,95958.77
2018-05-27T18:25:45.459Z,95960.28
2018-05-27T18:28:15.547Z,95969.12
2018-05-27T18:30:45.803Z,95975.23
2018-05-27T18:33:15.891Z,95975.56
2018-05-27T18:35:45.955Z,95973.35
2018-05-27T18:38:16.441Z,95977.26
2018-05-27T18:40:46.499Z,95977.31
2018-05-27T18:43:17.018Z,95980.00
2018-05-27T18:45:47.186Z,95978.22
2018-05-27T18:48:17.307Z,95981.55
2018-05-27T18:50:47.557Z,95982.84
2018-05-27T18:53:17.807Z,95988.03
2018-05-27T18:55:48.284Z,95990.53
2018-05-27T18:58:18.366Z,95995.98
2018-05-27T19:00:48.847Z,95999.67
2018-05-27T19:03:19.209Z,96000.11
2018-05-27T19:05:49.860Z,95998.93
2018-05-27T19:08:20.250Z,96006.00
2018-05-27T19:10:50.328Z,96004.27
2018-05-27T19:13:20.424Z,96011.50
2018-05-27T19:15:51.187Z,96006.59
2018-05-27T19:18:21.304Z,96012.45
2018-05-27T19:20:51.392Z,96014.22
2018-05-27T19:23:21.879Z,96013.66
2018-05-27T19:25:52.306Z,96023.28
2018-05-27T19:28:22.441Z,96019.89
2018-05-27T19:30:52.525Z,96026.06
2018-05-27T19:33:22.606Z,96020.25
2018-05-27T19:35:53.394Z,96024.36
2018-05-27T19:38:23.491Z,96024.02
2018-05-27T19:40:53.595Z,96027.53
2018-05-27T19:43:23.696Z,96033.67
2018-05-27T19:45:54.279Z,96029.22
2018-05-27T19:48:24.389Z,96033.01
2018-05-27T19:50:54.464Z,96044.30
2018-05-27T19:53:24.957Z,96043.84
2018-05-27T19:55:55.067Z,96045.52
2018-05-27T19:58:25.165Z,96057.27
2018-05-27T20:00:55.295Z,96056.19
2018-05-27T20:03:25.532Z,96047.69
2018-05-27T20:05:55.625Z,96047.83
2018-05-27T20:08:25.728Z,96038.23
2018-05-27T20:10:55.832Z,96042.86
2018-05-27T20:13:26.374Z,96035.69
2018-05-27T20:15:56.853Z,96030.91
2018-05-27T20:18:26.951Z,96030.53
2018-05-27T20:20:57.045Z,96018.18
2018-05-27T20:23:27.546Z,96019.59
2018-05-27T20:25:57.641Z,96022.13
2018-05-27T20:28:27.734Z,96022.25
2018-05-27T20:30:57.816Z,96025.45
2018-05-27T20:33:27.949Z,96017.38
2018-05-27T20:35:58.437Z,96015.69
2018-05-27T20:38:28.535Z,96017.27
2018-05-27T20:40:58.681Z,96022.21
2018-05-27T20:43:28.746Z,96023.34
2018-05-27T20:45:58.827Z,96035.06
2018-05-27T20:48:28.925Z,96036.79
2018-05-27T20:50:59.039Z,96036.83
2018-05-27T20:53:29.181Z,96030.42
2018-05-27T20:55:59.336Z,96028.94
2018-05-27T20:58:29.832Z,96031.27
2018-05-27T21:00:59.925Z,96033.16
2018-05-27T21:03:30.051Z,96033.09
2018-05-27T21:06:00.145Z,96037.40
2018-05-27T21:08:30.307Z,96034.02
2018-05-27T21:11:01.660Z,96034.62
2018-05-27T21:13:31.746Z,96044.52
2018-05-27T21:16:01.901Z,96042.42
2018-05-27T21:18:31.989Z,96045.98
2018-05-27T21:21:02.271Z,96053.06
2018-05-27T21:23:32.759Z,96053.05
2018-05-27T21:26:02.828Z,96055.69
2018-05-27T21:28:33.316Z,96056.52
2018-05-27T21:31:03.411Z,96059.67
2018-05-27T21:33:33.491Z,96062.08
2018-05-27T21:36:03.955Z,96064.83
2018-05-27T21:38:34.043Z,96059.00
2018-05-27T21:41:04.521Z,96058.13
2018-05-27T21:43:34.589Z,96058.30
2018-05-27T21:46:05.070Z,96052.27
2018-05-27T21:48:35.352Z,96046.98
2018-05-27T21:51:05.445Z,96047.27
2018-05-27T21:53:35.915Z,96036.06
2018-05-27T21:56:05.984Z,96040.69
2018-05-27T21:58:36.290Z,96039.63
2018-05-27T22:01:06.914Z,96039.78
2018-05-27T22:03:36.986Z,96035.22
2018-05-27T22:06:07.104Z,96037.62
2018-05-27T22:08:37.566Z,96047.41
2018-05-27T22:11:07.642Z,96054.09
2018-05-27T22:13:37.808Z,96057.23
2018-05-27T22:16:07.921Z,96069.27
2018-05-27T22:18:38.008Z,96064.84
2018-05-27T22:21:08.101Z,96068.72
2018-05-27T22:23:38.205Z,96073.80
2018-05-27T22:26:08.405Z,96067.59
2018-05-27T22:28:38.607Z,96072.81
2018-05-27T22:31:08.728Z,96074.09
2018-05-27T22:33:38.817Z,96062.92
2018-05-27T22:36:09.061Z,96058.52
2018-05-27T22:38:39.146Z,96066.57
2018-05-27T22:41:09.228Z,96064.94
2018-05-27T22:43:40.030Z,96065.80
2018-05-27T22:46:10.510Z,96064.63
2018-05-27T22:48:40.624Z,96060.30
2018-05-27T22:51:10.722Z,96065.31
2018-05-27T22:53:40.881Z,96059.91
2018-05-27T22:56:10.970Z,96070.17
2018-05-27T22:58:41.264Z,96072.16
2018-05-27T23:01:11.042Z,96082.91
2018-05-27T23:03:41.358Z,96081.99
2018-05-27T23:06:11.442Z,96075.80
2018-05-27T23:08:41.592Z,96082.43
2018-05-27T23:11:11.683Z,96086.27
2018-05-27T23:13:41.974Z,96081.99
2018-05-27T23:16:12.462Z,96089.02
2018-05-27T23:18:42.572Z,96097.40
2018-05-27T23:21:12.724Z,96092.57
2018-05-27T23:23:42.814Z,96091.53
2018-05-27T23:26:12.950Z,96087.69
2018-05-27T23:28:43.028Z,96091.73
2018-05-27T23:31:13.122Z,96091.06
2018-05-27T23:33:43.672Z,96081.53
2018-05-27T23:36:13.752Z,96081.63
2018-05-27T23:38:43.852Z,96089.96
2018-05-27T23:41:13.950Z,96082.78
2018-05-27T23:43:44.044Z,96080.64
2018-05-27T23:46:14.148Z,96081.53
2018-05-27T23:48:44.718Z,96083.23
2018-05-27T23:51:14.808Z,96088.52
2018-05-27T23:53:45.288Z,96091.22
2018-05-27T23:56:15.710Z,96086.95
2018-05-27T23:58:45.806Z,96094.43
